createdAt,value
2018-02-22T00:03:40.211Z,102228.12
2018-02-22T00:08:41.511Z,102226.87
2018-02-22T00:13:42.835Z,102223.34
2018-02-22T00:18:44.242Z,102219.44
2018-02-22T00:23:45.673Z,102218.14
2018-02-22T00:28:47.727Z,102219.58
2018-02-22T00:33:49.215Z,102221.27
2018-02-22T00:38:50.542Z,102230.70
2018-02-22T00:43:51.902Z,102221.45
2018-02-22T00:48:53.326Z,102220.13
2018-02-22T00:53:55.415Z,102220.76
2018-02-22T00:58:56.755Z,102224.55
2018-02-22T01:03:58.138Z,102215.55
2018-02-22T01:08:59.551Z,102214.31
2018-02-22T01:14:00.915Z,102211.02
2018-02-22T01:19:02.424Z,102189.42
2018-02-22T01:24:03.760Z,102195.76
2018-02-22T01:29:05.069Z,102188.48
2018-02-22T01:34:06.684Z,102190.30
2018-02-22T01:39:08.037Z,102184.91
2018-02-22T01:44:09.378Z,102197.40
2018-02-22T01:49:10.856Z,102204.33
2018-02-22T01:54:12.213Z,102206.27
2018-02-22T01:59:13.519Z,102203.00
2018-02-22T02:04:15.624Z,102193.50
2018-02-22T02:09:17.724Z,102184.56
2018-02-22T02:14:19.062Z,102187.16
2018-02-22T02:19:20.423Z,102172.04
2018-02-22T02:24:21.768Z,102187.66
2018-02-22T02:29:23.124Z,102192.81
2018-02-22T02:34:24.460Z,102194.47
2018-02-22T02:39:25.793Z,102193.54
2018-02-22T02:44:27.115Z,102185.95
2018-02-22T02:49:28.490Z,102180.39
2018-02-22T02:54:29.831Z,102185.18
2018-02-22T02:59:31.178Z,102187.80
2018-02-22T03:04:32.535Z,102182.61
2018-02-22T03:09:33.912Z,102180.88
2018-02-22T03:14:35.986Z,102177.53
2018-02-22T03:19:37.372Z,102178.13
2018-02-22T03:24:38.815Z,102173.34
2018-02-22T03:29:40.899Z,102171.64
2018-02-22T03:34:42.295Z,102166.13
2018-02-22T03:39:44.393Z,102170.30
2018-02-22T03:44:45.754Z,102168.03
2018-02-22T03:49:47.094Z,102163.42
2018-02-22T03:54:49.251Z,102163.83
2018-02-22T03:59:50.624Z,102171.46
2018-02-22T04:04:51.975Z,102175.68
2018-02-22T04:09:54.155Z,102178.07
2018-02-22T04:14:55.506Z,102178.91
2018-02-22T04:19:56.923Z,102176.73
2018-02-22T04:24:58.258Z,102176.16
2018-02-22T04:30:00.359Z,102176.59
2018-02-22T04:35:02.461Z,102172.42
2018-02-22T04:40:04.569Z,102175.96
2018-02-22T04:45:06.020Z,102181.02
2018-02-22T04:50:07.433Z,102182.30
2018-02-22T04:55:08.782Z,102172.95
2018-02-22T05:00:10.177Z,102183.59
2018-02-22T05:05:11.507Z,102182.95
2018-02-22T05:10:12.847Z,102183.03
2018-02-22T05:15:14.295Z,102191.25
2018-02-22T05:20:15.685Z,102185.11
2018-02-22T05:25:17.103Z,102174.02
2018-02-22T05:30:18.429Z,102191.59
2018-02-22T05:35:20.719Z,102182.14
2018-02-22T05:40:22.070Z,102176.72
2018-02-22T05:45:23.410Z,102186.09
2018-02-22T05:50:24.769Z,102190.84
2018-02-22T05:55:26.932Z,102189.99
2018-02-22T06:00:28.280Z,102182.66
2018-02-22T06:05:29.614Z,102194.48
2018-02-22T06:10:30.984Z,102195.95
2018-02-22T06:15:32.352Z,102205.70
2018-02-22T06:20:33.684Z,102201.55
2018-02-22T06:25:35.040Z,102201.88
2018-02-22T06:30:36.402Z,102204.22
2018-02-22T06:35:38.561Z,102208.56
2018-02-22T06:40:40.007Z,102212.59
2018-02-22T06:45:42.332Z,102230.77
2018-02-22T06:50:44.408Z,102220.48
2018-02-22T06:55:45.726Z,102228.49
2018-02-22T07:00:47.808Z,102230.70
2018-02-22T07:05:49.177Z,102228.28
2018-02-22T07:10:50.519Z,102222.69
2018-02-22T07:15:51.874Z,102215.45
2018-02-22T07:20:53.278Z,102222.08
2018-02-22T07:25:55.462Z,102228.65
2018-02-22T07:30:56.792Z,102233.09
2018-02-22T07:35:58.872Z,102243.64
2018-02-22T07:41:00.940Z,102235.76
2018-02-22T07:46:02.319Z,102229.57
2018-02-22T07:51:03.663Z,102236.75
2018-02-22T07:56:05.022Z,102244.81
2018-02-22T08:01:06.424Z,102254.09
2018-02-22T08:06:07.853Z,102252.20
2018-02-22T08:11:09.972Z,102258.02
2018-02-22T08:16:11.362Z,102257.78
2018-02-22T08:21:12.728Z,102250.86
2018-02-22T08:26:14.083Z,102255.83
2018-02-22T08:31:15.443Z,102252.82
2018-02-22T08:36:16.844Z,102260.83
2018-02-22T08:41:18.188Z,102254.27
2018-02-22T08:46:19.540Z,102252.46
2018-02-22T08:51:20.871Z,102252.19
2018-02-22T08:56:22.972Z,102252.59
2018-02-22T09:01:25.070Z,102257.72
2018-02-22T09:06:26.458Z,102258.61
2018-02-22T09:11:27.805Z,102264.06
2018-02-22T09:16:29.183Z,102264.91
2018-02-22T09:21:30.562Z,102262.78
2018-02-22T09:26:31.926Z,102245.10
2018-02-22T09:31:33.239Z,102256.32
2018-02-22T09:36:34.602Z,102254.64
2018-02-22T09:41:35.971Z,102254.58
2018-02-22T09:46:37.332Z,102249.31
2018-02-22T09:51:38.683Z,102254.17
2018-02-22T09:56:40.103Z,102249.96
2018-02-22T10:01:41.483Z,102256.22
2018-02-22T10:06:42.826Z,102260.40
2018-02-22T10:11:50.300Z,102258.03
2018-02-22T10:16:52.366Z,102244.66
2018-02-22T10:21:53.800Z,102251.63
2018-02-22T10:26:55.167Z,102243.55
2018-02-22T10:31:56.504Z,102243.25
2018-02-22T10:36:57.855Z,102240.30
2018-02-22T10:41:59.992Z,102242.31
2018-02-22T10:47:01.378Z,102238.08
2018-02-22T10:52:02.779Z,102242.05
2018-02-22T10:57:04.100Z,102224.16
2018-02-22T11:02:11.411Z,102227.86
2018-02-22T11:07:12.803Z,102234.16
2018-02-22T11:12:14.152Z,102236.80
2018-02-22T11:17:16.346Z,102229.44
2018-02-22T11:22:17.691Z,102233.86
2018-02-22T11:27:19.028Z,102232.03
2018-02-22T11:32:20.421Z,102233.86
2018-02-22T11:37:22.583Z,102226.38
2018-02-22T11:42:23.911Z,102226.37
2018-02-22T11:47:25.252Z,102219.80
2018-02-22T11:52:26.615Z,102214.97
2018-02-22T11:57:28.729Z,102207.55
2018-02-22T12:02:30.864Z,102208.39
2018-02-22T12:07:32.182Z,102203.11
2018-02-22T12:12:33.532Z,102180.08
2018-02-22T12:17:34.868Z,102168.37
2018-02-22T12:22:36.260Z,102182.23
2018-02-22T12:27:37.636Z,102175.48
2018-02-22T12:32:39.052Z,102166.77
2018-02-22T12:37:40.454Z,102165.22
2018-02-22T12:42:41.874Z,102135.78
2018-02-22T12:47:43.240Z,102149.27
2018-02-22T12:52:45.375Z,102140.43
2018-02-22T12:57:46.742Z,102139.23
2018-02-22T13:02:48.855Z,102129.94
2018-02-22T13:07:50.227Z,102123.15
2018-02-22T13:12:51.558Z,102112.28
2018-02-22T13:17:52.938Z,102109.05
2018-02-22T13:22:54.324Z,102090.87
2018-02-22T13:27:55.712Z,102088.16
2018-02-22T13:33:15.411Z,102080.37
2018-02-22T13:38:35.171Z,102080.02
2018-02-22T13:43:36.572Z,102074.88
2018-02-22T13:54:26.381Z,102057.09
2018-02-22T13:59:27.783Z,102068.63
2018-02-22T14:04:29.125Z,102058.36
2018-02-22T14:09:30.451Z,102063.56
2018-02-22T14:14:31.830Z,102061.44
2018-02-22T14:19:33.157Z,102058.47
2018-02-22T14:24:34.526Z,102057.19
2018-02-22T14:29:35.897Z,102054.90
2018-02-22T14:34:37.324Z,102045.41
2018-02-22T14:39:38.723Z,102040.17
2018-02-22T14:44:40.174Z,102045.52
2018-02-22T14:49:41.522Z,102042.41
2018-02-22T14:54:43.635Z,102029.36
2018-02-22T14:59:45.012Z,102033.16
2018-02-22T15:04:47.124Z,102023.47
2018-02-22T15:09:49.307Z,102030.52
2018-02-22T15:14:50.626Z,102036.23
2018-02-22T15:19:52.033Z,102028.83
2018-02-22T15:24:53.408Z,102033.72
2018-02-22T15:29:54.780Z,102024.62
2018-02-22T15:34:56.879Z,102029.80
2018-02-22T15:39:58.254Z,102027.50
2018-02-22T15:44:59.658Z,102031.48
2018-02-22T15:50:01.015Z,102038.62
2018-02-22T15:55:02.438Z,102029.99
2018-02-22T16:00:03.857Z,102034.63
2018-02-22T16:10:39.862Z,102042.76
2018-02-22T16:15:41.312Z,102031.58
2018-02-22T16:20:42.733Z,102028.41
2018-02-22T16:25:44.115Z,102039.23
2018-02-22T16:30:45.530Z,102029.38
2018-02-22T16:35:46.920Z,102032.94
2018-02-22T16:40:48.285Z,102023.12
2018-02-22T16:45:49.696Z,102032.28
2018-02-22T16:50:51.073Z,102034.80
2018-02-22T16:55:52.435Z,102034.40
2018-02-22T17:00:55.376Z,102033.08
2018-02-22T17:05:56.755Z,102030.91
2018-02-22T17:10:58.854Z,102032.20
2018-02-22T17:16:00.945Z,102032.21
2018-02-22T17:21:02.309Z,102029.79
2018-02-22T17:26:09.740Z,102026.53
2018-02-22T17:31:17.160Z,102029.83
2018-02-22T17:36:24.485Z,102030.98
2018-02-22T17:41:32.134Z,102026.27
2018-02-22T17:46:33.495Z,102037.79
2018-02-22T17:51:34.980Z,102029.73
2018-02-22T17:56:37.136Z,102044.63
2018-02-22T18:01:38.497Z,102042.12
2018-02-22T18:06:39.838Z,101996.94
2018-02-22T18:11:41.213Z,102042.91
2018-02-22T18:16:42.587Z,102042.94
2018-02-22T18:21:44.013Z,102057.57
2018-02-22T18:26:45.419Z,102048.62
2018-02-22T18:31:47.656Z,102055.21
2018-02-22T18:36:49.036Z,102055.62
2018-02-22T18:41:53.187Z,102059.03
2018-02-22T18:46:54.668Z,102059.57
2018-02-22T18:51:56.061Z,102065.03
2018-02-22T18:56:57.455Z,102072.58
2018-02-22T19:01:59.574Z,102075.59
2018-02-22T19:07:00.975Z,102078.08
2018-02-22T19:12:02.401Z,102072.70
2018-02-22T19:17:03.737Z,102069.06
2018-02-22T19:22:05.112Z,102065.75
2018-02-22T19:27:07.216Z,102069.17
2018-02-22T19:32:08.635Z,102065.39
2018-02-22T19:37:10.661Z,102060.41
2018-02-22T19:42:12.106Z,102044.39
2018-02-22T19:47:13.499Z,102056.83
2018-02-22T19:52:14.929Z,102061.56
2018-02-22T19:57:17.193Z,102054.53
2018-02-22T20:02:18.568Z,102060.92
2018-02-22T20:07:19.968Z,102065.92
2018-02-22T20:12:21.407Z,102065.19
2018-02-22T20:17:23.016Z,102071.13
2018-02-22T20:22:25.101Z,102075.40
2018-02-22T20:27:26.464Z,102074.10
2018-02-22T20:32:27.814Z,102071.09
2018-02-22T20:37:29.952Z,102059.64
2018-02-22T20:42:31.484Z,102069.45
2018-02-22T20:47:32.926Z,102064.36
2018-02-22T20:52:41.153Z,102063.07
2018-02-22T20:57:42.621Z,102057.78
2018-02-22T21:02:44.056Z,102063.36
2018-02-22T21:07:45.424Z,102063.92
2018-02-22T21:12:46.736Z,102068.70
2018-02-22T21:17:48.138Z,102063.09
2018-02-22T21:22:49.651Z,102068.84
2018-02-22T21:27:51.032Z,102065.57
2018-02-22T21:32:52.372Z,102062.47
2018-02-22T21:37:53.694Z,102064.22
2018-02-22T21:42:55.040Z,102056.64
2018-02-22T21:47:56.466Z,102058.42
2018-02-22T21:52:57.840Z,102069.14
2018-02-22T21:57:59.184Z,102064.16
2018-02-22T22:03:01.280Z,102061.17
2018-02-22T22:08:02.660Z,102061.95
2018-02-22T22:13:04.608Z,102049.25
2018-02-22T22:18:06.002Z,102044.75
2018-02-22T22:23:07.399Z,102055.32
2018-02-22T22:28:08.799Z,102059.44
2018-02-22T22:33:10.185Z,102049.97
2018-02-22T22:38:11.568Z,102052.67
2018-02-22T22:43:13.103Z,102043.95
2018-02-22T22:48:14.430Z,102035.09
2018-02-22T22:53:16.665Z,102050.54
2018-02-22T22:58:18.084Z,102039.22
2018-02-22T23:03:19.414Z,102040.17
2018-02-22T23:08:21.534Z,102037.30
2018-02-22T23:13:23.588Z,102029.59
2018-02-22T23:18:25.023Z,102029.80
2018-02-22T23:23:27.131Z,102042.41
2018-02-22T23:28:29.187Z,102031.94
2018-02-22T23:33:30.657Z,102044.34
2018-02-22T23:38:32.048Z,102043.91
2018-02-22T23:43:33.514Z,102037.63
2018-02-22T23:48:34.910Z,102031.05
2018-02-22T23:53:36.988Z,102032.00
2018-02-22T23:58:38.360Z,102028.97
